Time;durP1;ratioP1;P1;durP2;ratioP2;P2;SDS_P1;SDS_P2;PMS_P1;PMS_P2;Temp;Humidity;BMP_temperature;BMP_pressure;BME280_temperature;BME280_humidity;BME280_pressure;Samples;Min_cycle;Max_cycle;Signal;HPM_P1;HPM_P2
2020/12/25 00:00:56;;;;;;;3.10;1.80;;;;;;;3.08;86.47;99464.75;1834934;77;21372;-71
2020/12/25 00:03:25;;;;;;;2.85;1.60;;;;;;;3.10;86.50;99460.56;1832494;75;21237;-72
2020/12/25 00:05:53;;;;;;;2.45;1.40;;;;;;;3.13;86.50;99462.74;1827077;75;21235;-73
2020/12/25 00:08:20;;;;;;;2.02;1.32;;;;;;;3.14;86.54;99463.02;1822731;77;21172;-71
2020/12/25 00:10:54;;;;;;;3.60;1.70;;;;;;;3.14;86.56;99467.77;1825624;77;21215;-74
2020/12/25 00:13:21;;;;;;;2.83;1.50;;;;;;;3.15;86.56;99435.59;1837872;75;21330;-74
2020/12/25 00:15:49;;;;;;;2.98;1.50;;;;;;;3.15;86.58;99432.95;1841153;77;22615;-74
2020/12/25 00:18:17;;;;;;;3.55;1.50;;;;;;;3.15;86.59;99431.63;1827790;77;21192;-71
2020/12/25 00:20:49;;;;;;;2.60;1.47;;;;;;;3.13;86.62;99425.28;1828949;77;21163;-73
2020/12/25 00:23:16;;;;;;;3.42;1.50;;;;;;;3.16;86.66;99429.27;1826435;77;21513;-73
2020/12/25 00:25:44;;;;;;;3.15;1.37;;;;;;;3.16;86.72;99422.67;1831063;75;21765;-74
2020/12/25 00:28:12;;;;;;;2.27;1.10;;;;;;;3.20;86.77;99426.45;1830193;75;21662;-74
2020/12/25 00:30:43;;;;;;;2.00;1.10;;;;;;;3.24;86.79;99430.22;1833111;75;21100;-73
2020/12/25 00:33:12;;;;;;;2.47;1.30;;;;;;;3.24;86.80;99417.03;1832895;75;21127;-73
2020/12/25 00:35:42;;;;;;;1.60;1.05;;;;;;;3.27;86.82;99421.31;1833801;75;21088;-74
2020/12/25 00:38:10;;;;;;;1.30;0.85;;;;;;;3.31;86.82;99431.39;1834557;75;21365;-74
2020/12/25 00:40:43;;;;;;;1.20;0.90;;;;;;;3.32;86.86;99421.91;1836711;75;21136;-74
2020/12/25 00:43:12;;;;;;;1.72;1.00;;;;;;;3.34;86.86;99433.04;1834273;75;21128;-74
2020/12/25 00:45:40;;;;;;;1.75;0.90;;;;;;;3.35;86.89;99445.19;1834363;75;21100;-73
2020/12/25 00:48:07;;;;;;;1.52;0.90;;;;;;;3.39;86.90;99447.66;1832444;75;21192;-73
2020/12/25 00:50:35;;;;;;;1.60;0.90;;;;;;;3.42;86.90;99439.77;1834095;75;21316;-74
2020/12/25 00:53:03;;;;;;;1.65;0.78;;;;;;;3.45;86.90;99440.09;1833916;75;21180;-73
2020/12/25 00:55:31;;;;;;;1.75;0.98;;;;;;;3.46;86.87;99450.16;1833346;75;21255;-73
2020/12/25 00:57:59;;;;;;;1.67;0.90;;;;;;;3.43;86.88;99444.82;1835677;75;21199;-72
2020/12/25 01:00:27;;;;;;;2.40;1.00;;;;;;;3.44;86.91;99433.22;1839329;75;21160;-73
2020/12/25 01:02:55;;;;;;;1.55;1.00;;;;;;;3.44;86.88;99431.89;1833264;75;21357;-74
2020/12/25 01:05:23;;;;;;;1.75;1.10;;;;;;;3.47;86.86;99431.95;1831193;75;21611;-73
2020/12/25 01:07:51;;;;;;;2.05;1.10;;;;;;;3.48;86.88;99432.22;1831311;75;21194;-73
2020/12/25 01:10:20;;;;;;;1.87;1.00;;;;;;;3.50;86.87;99415.63;1834035;75;21204;-73
2020/12/25 01:12:49;;;;;;;2.08;1.17;;;;;;;3.50;86.85;99412.47;1832496;75;21609;-73
2020/12/25 01:15:17;;;;;;;1.72;1.00;;;;;;;3.49;86.85;99404.28;1831068;77;21209;-74
2020/12/25 01:17:45;;;;;;;1.62;1.00;;;;;;;3.51;86.86;99402.19;1833451;75;21212;-73
2020/12/25 01:20:13;;;;;;;1.62;1.00;;;;;;;3.53;86.86;99394.83;1809666;77;21180;-73
2020/12/25 01:22:41;;;;;;;1.52;0.93;;;;;;;3.56;86.86;99392.77;1815164;77;21185;-74
2020/12/25 01:25:09;;;;;;;2.25;1.30;;;;;;;3.58;86.83;99391.47;1813297;77;21507;-74
2020/12/25 01:27:36;;;;;;;2.12;1.27;;;;;;;3.59;86.80;99379.09;1812091;77;21222;-73
2020/12/25 01:30:04;;;;;;;1.75;1.10;;;;;;;3.60;86.79;99375.41;1809375;78;21176;-73
2020/12/25 01:32:34;;;;;;;1.87;1.20;;;;;;;3.59;86.74;99389.13;1807951;78;21164;-73
2020/12/25 01:35:05;;;;;;;2.75;1.30;;;;;;;3.57;86.70;99389.88;1808992;78;21147;-73
2020/12/25 01:37:33;;;;;;;1.40;0.88;;;;;;;3.57;86.70;99394.36;1809164;77;21115;-74
2020/12/25 01:40:00;;;;;;;2.00;1.20;;;;;;;3.55;86.72;99387.19;1803444;78;21386;-72
2020/12/25 01:42:28;;;;;;;1.90;1.20;;;;;;;3.56;86.72;99372.97;1805449;78;21673;-73
2020/12/25 01:44:55;;;;;;;2.47;1.30;;;;;;;3.58;86.73;99372.19;1803319;78;21171;-73
2020/12/25 01:47:23;;;;;;;2.33;1.30;;;;;;;3.58;86.73;99382.23;1802341;78;21525;-74
2020/12/25 01:49:52;;;;;;;2.15;1.40;;;;;;;3.60;86.73;99378.05;1755801;78;21203;-73
2020/12/25 01:52:20;;;;;;;2.33;1.45;;;;;;;3.61;86.73;99388.88;1801947;78;21617;-74
2020/12/25 01:54:49;;;;;;;2.83;1.62;;;;;;;3.63;86.75;99388.12;1781603;78;21192;-73
2020/12/25 01:57:17;;;;;;;2.90;1.70;;;;;;;3.64;86.75;99385.75;1804603;78;21175;-73
2020/12/25 01:59:44;;;;;;;3.20;1.80;;;;;;;3.66;86.79;99379.20;1804511;78;22166;-73
2020/12/25 02:02:12;;;;;;;3.12;1.90;;;;;;;3.67;86.83;99383.95;1805520;77;21183;-74
2020/12/25 02:04:42;;;;;;;3.58;2.02;;;;;;;3.69;86.85;99380.05;1801616;78;21719;-74
2020/12/25 02:07:11;;;;;;;3.90;2.10;;;;;;;3.72;86.88;99378.77;1804027;78;21674;-73
2020/12/25 02:09:38;;;;;;;4.65;2.10;;;;;;;3.73;86.89;99375.87;1803683;78;21183;-72
2020/12/25 02:12:06;;;;;;;3.58;2.10;;;;;;;3.73;86.91;99381.69;1800784;78;21663;-73
2020/12/25 02:14:35;;;;;;;4.25;2.20;;;;;;;3.71;86.98;99373.98;1803413;78;21226;-72
2020/12/25 02:17:03;;;;;;;4.20;2.47;;;;;;;3.73;87.03;99374.55;1802394;78;21371;-73
2020/12/25 02:19:30;;;;;;;3.60;2.33;;;;;;;3.76;87.10;99370.64;1801699;78;21191;-73
2020/12/25 02:21:59;;;;;;;4.05;2.52;;;;;;;3.78;87.15;99371.18;1803317;78;21127;-73
2020/12/25 02:24:27;;;;;;;4.58;2.70;;;;;;;3.80;87.19;99371.75;1803341;78;21637;-73
2020/12/25 02:26:55;;;;;;;4.65;2.70;;;;;;;3.84;87.22;99373.39;1802107;78;21695;-73
2020/12/25 02:29:23;;;;;;;5.80;3.25;;;;;;;3.86;87.25;99373.95;1807094;78;21722;-73
2020/12/25 02:31:50;;;;;;;4.85;2.95;;;;;;;3.86;87.31;99372.63;1803518;78;21163;-73
2020/12/25 02:34:18;;;;;;;5.65;3.30;;;;;;;3.88;87.33;99374.00;1802962;78;21616;-73
2020/12/25 02:36:46;;;;;;;7.22;3.60;;;;;;;3.90;87.34;99369.78;1803062;78;21167;-73
2020/12/25 02:39:14;;;;;;;5.95;3.20;;;;;;;3.88;87.36;99370.03;1803275;78;21184;-73
2020/12/25 02:41:41;;;;;;;5.42;3.00;;;;;;;3.86;87.39;99362.86;1805338;78;22750;-73
2020/12/25 02:44:09;;;;;;;4.87;3.08;;;;;;;3.84;87.47;99366.78;1803433;78;21170;-74
2020/12/25 02:46:36;;;;;;;6.97;3.60;;;;;;;3.84;87.53;99367.58;1803631;78;21382;-75
2020/12/25 02:49:04;;;;;;;6.45;3.83;;;;;;;3.82;87.62;99355.64;1804075;78;21183;-74
2020/12/25 02:51:32;;;;;;;6.33;4.12;;;;;;;3.83;87.69;99357.27;1803083;78;21418;-74
2020/12/25 02:53:59;;;;;;;6.72;3.62;;;;;;;3.84;87.82;99363.61;1806263;78;21798;-75
2020/12/25 02:56:27;;;;;;;6.83;4.20;;;;;;;3.85;87.85;99357.31;1804137;78;21671;-75
2020/12/25 02:58:55;;;;;;;8.43;4.80;;;;;;;3.86;87.94;99356.26;1805345;78;21207;-75
2020/12/25 03:01:22;;;;;;;7.70;4.55;;;;;;;3.89;88.03;99369.52;1804548;78;21175;-74
2020/12/25 03:03:50;;;;;;;7.03;4.75;;;;;;;3.91;88.07;99366.09;1804451;78;21163;-75
2020/12/25 03:06:18;;;;;;;7.28;4.65;;;;;;;3.93;88.10;99366.13;1803277;78;21349;-73
2020/12/25 03:08:45;;;;;;;7.95;4.72;;;;;;;3.93;88.17;99354.24;1804236;78;21203;-73
2020/12/25 03:11:13;;;;;;;8.35;4.87;;;;;;;3.95;88.20;99361.41;1804942;78;21167;-75
2020/12/25 03:13:41;;;;;;;9.30;6.25;;;;;;;3.96;88.25;99366.97;1804002;78;21088;-73
2020/12/25 03:16:09;;;;;;;10.53;5.70;;;;;;;3.98;88.28;99360.11;1807779;77;21179;-75
2020/12/25 03:18:36;;;;;;;9.80;5.72;;;;;;;4.02;88.29;99363.09;1806174;78;22079;-75
2020/12/25 03:21:04;;;;;;;8.55;4.85;;;;;;;4.03;88.29;99366.00;1804681;78;21187;-74
2020/12/25 03:23:32;;;;;;;11.10;5.97;;;;;;;4.05;88.32;99379.75;1803423;78;21203;-74
2020/12/25 03:25:59;;;;;;;10.38;5.83;;;;;;;4.03;88.31;99371.29;1801331;77;22259;-73
2020/12/25 03:28:27;;;;;;;11.30;7.00;;;;;;;4.05;88.37;99381.08;1804695;78;21227;-74
2020/12/25 03:30:55;;;;;;;10.48;5.97;;;;;;;4.03;88.39;99370.77;1803356;77;22963;-73
2020/12/25 03:33:22;;;;;;;12.63;7.65;;;;;;;4.03;88.46;99377.37;1803671;78;21211;-73
2020/12/25 03:35:51;;;;;;;12.73;7.22;;;;;;;4.02;88.47;99380.27;1806910;78;21178;-75
2020/12/25 03:38:19;;;;;;;13.85;7.37;;;;;;;4.03;88.53;99391.11;1806926;78;21159;-73
2020/12/25 03:40:46;;;;;;;12.03;6.80;;;;;;;4.03;88.57;99382.66;1804045;78;21179;-74
2020/12/25 03:43:14;;;;;;;13.05;7.53;;;;;;;4.07;88.62;99385.61;1807745;78;21377;-74
2020/12/25 03:45:42;;;;;;;13.50;7.65;;;;;;;4.09;88.67;99383.01;1811125;77;21537;-74
2020/12/25 03:48:10;;;;;;;15.93;9.18;;;;;;;4.14;88.70;99388.88;1809857;78;21073;-74
2020/12/25 03:50:37;;;;;;;15.13;8.53;;;;;;;4.15;88.71;99394.45;1812628;78;21603;-72
2020/12/25 03:53:08;;;;;;;13.22;7.45;;;;;;;4.15;88.75;99380.72;1811391;78;21610;-74
2020/12/25 03:55:35;;;;;;;16.37;9.15;;;;;;;4.18;88.78;99378.12;1814825;78;21372;-74
2020/12/25 03:58:03;;;;;;;15.00;9.43;;;;;;;4.17;88.79;99389.19;1805161;78;21155;-73
2020/12/25 04:00:31;;;;;;;14.83;9.03;;;;;;;4.16;88.84;99385.48;1803009;78;21102;-73
2020/12/25 04:02:58;;;;;;;19.30;10.58;;;;;;;4.18;88.88;99378.12;1813849;78;21636;-74
2020/12/25 04:05:26;;;;;;;16.07;10.10;;;;;;;4.21;88.91;99369.17;1811420;78;21088;-72
2020/12/25 04:07:54;;;;;;;18.80;10.10;;;;;;;4.27;88.94;99369.23;1808414;78;22764;-73
2020/12/25 04:10:23;;;;;;;16.23;10.28;;;;;;;4.31;88.95;99383.05;1811240;78;21052;-74
2020/12/25 04:12:51;;;;;;;17.77;10.50;;;;;;;4.35;88.92;99382.04;1810964;77;21176;-74
2020/12/25 04:15:19;;;;;;;18.45;10.58;;;;;;;4.38;88.92;99386.84;1808782;78;21112;-74
2020/12/25 04:17:47;;;;;;;17.30;10.10;;;;;;;4.42;88.90;99385.30;1806074;78;21124;-74
2020/12/25 04:20:14;;;;;;;17.25;10.43;;;;;;;4.44;88.84;99393.27;1803341;78;21379;-74
2020/12/25 04:22:42;;;;;;;18.10;10.55;;;;;;;4.49;88.83;99390.41;1803108;78;21770;-74
2020/12/25 04:25:11;;;;;;;19.82;11.22;;;;;;;4.51;88.77;99395.73;1807953;78;21612;-75
2020/12/25 04:27:38;;;;;;;18.12;10.25;;;;;;;4.56;88.77;99380.44;1808348;78;21180;-75
2020/12/25 04:30:06;;;;;;;20.08;11.73;;;;;;;4.59;88.68;99381.27;1806530;78;21111;-74
2020/12/25 04:32:33;;;;;;;19.95;11.18;;;;;;;4.59;88.60;99374.66;1806514;78;21684;-73
2020/12/25 04:35:02;;;;;;;19.25;11.80;;;;;;;4.62;88.59;99383.43;1819249;78;21105;-73
2020/12/25 04:37:31;;;;;;;16.62;9.60;;;;;;;4.65;88.52;99378.97;1815812;78;21112;-73
2020/12/25 04:39:58;;;;;;;20.05;12.07;;;;;;;4.65;88.45;99382.94;1806246;78;21104;-71
2020/12/25 04:42:27;;;;;;;21.10;12.98;;;;;;;4.63;88.45;99371.27;1797345;78;21148;-73
2020/12/25 04:44:55;;;;;;;24.07;12.93;;;;;;;4.65;88.44;99375.80;1802605;78;22369;-73
2020/12/25 04:47:22;;;;;;;19.48;11.60;;;;;;;4.70;88.42;99382.48;1784445;78;21136;-72
2020/12/25 04:49:50;;;;;;;23.02;13.28;;;;;;;4.69;88.34;99374.25;1764817;78;21152;-74
2020/12/25 04:52:18;;;;;;;22.90;14.03;;;;;;;4.73;88.34;99388.30;1814419;78;21124;-73
2020/12/25 04:54:47;;;;;;;20.85;12.43;;;;;;;4.74;88.34;99388.08;1810776;78;21230;-73
2020/12/25 04:57:15;;;;;;;22.60;13.03;;;;;;;4.75;88.29;99389.66;1810011;78;21363;-73
2020/12/25 04:59:43;;;;;;;23.95;13.83;;;;;;;4.76;88.22;99398.40;1806081;78;21172;-74
2020/12/25 05:02:11;;;;;;;24.80;14.55;;;;;;;4.75;88.21;99399.45;1798266;78;21163;-72
2020/12/25 05:04:39;;;;;;;25.25;15.13;;;;;;;4.75;88.21;99393.63;1806944;78;21466;-74
2020/12/25 05:07:08;;;;;;;23.52;13.55;;;;;;;4.74;88.18;99398.66;1818653;78;21163;-73
2020/12/25 05:09:36;;;;;;;21.62;14.05;;;;;;;4.77;88.17;99405.27;1835733;77;21876;-72
2020/12/25 05:12:04;;;;;;;21.52;12.47;;;;;;;4.78;88.13;99405.05;1831689;77;21744;-73
2020/12/25 05:14:32;;;;;;;25.85;15.40;;;;;;;4.80;88.11;99400.81;1819796;78;21071;-73
2020/12/25 05:17:00;;;;;;;23.62;15.50;;;;;;;4.80;88.09;99415.37;1809903;78;21234;-75
2020/12/25 05:19:30;;;;;;;27.17;15.25;;;;;;;4.80;88.04;99418.81;1816885;78;21168;-73
2020/12/25 05:21:59;;;;;;;26.02;15.20;;;;;;;4.78;88.03;99424.89;1814877;77;21255;-73
2020/12/25 05:24:31;;;;;;;21.93;13.05;;;;;;;4.80;88.08;99430.71;1826333;77;21154;-73
2020/12/25 05:26:59;;;;;;;23.85;14.35;;;;;;;4.82;88.07;99419.91;1783413;77;21120;-73
2020/12/25 05:29:28;;;;;;;26.50;14.80;;;;;;;4.83;88.05;99411.70;1822227;77;21117;-73
2020/12/25 05:31:56;;;;;;;28.50;15.98;;;;;;;4.84;88.05;99409.88;1817738;77;21120;-73
2020/12/25 05:34:23;;;;;;;25.60;15.48;;;;;;;4.84;88.02;99415.97;1802118;78;21994;-73
2020/12/25 05:36:54;;;;;;;25.20;15.18;;;;;;;4.85;87.99;99430.78;1799797;79;21064;-74
2020/12/25 05:39:32;;;;;;;27.73;15.80;;;;;;;4.83;87.95;99431.55;1817842;77;21678;-73
2020/12/25 05:42:03;;;;;;;25.45;15.20;;;;;;;4.80;87.96;99432.03;1822280;78;21169;-73
2020/12/25 05:44:47;;;;;;;26.40;15.85;;;;;;;4.78;88.03;99432.03;1808927;78;21120;-74
2020/12/25 05:47:16;;;;;;;29.60;17.32;;;;;;;4.78;88.07;99443.41;1828868;78;21277;-74
2020/12/25 05:49:44;;;;;;;22.65;13.58;;;;;;;4.78;88.11;99446.05;1809056;78;21172;-72
2020/12/25 05:52:12;;;;;;;29.00;17.00;;;;;;;4.80;88.16;99444.47;1819505;78;21123;-73
2020/12/25 05:54:42;;;;;;;25.40;15.85;;;;;;;4.79;88.15;99439.70;1820062;78;21112;-73
2020/12/25 05:57:14;;;;;;;28.32;17.10;;;;;;;4.83;88.17;99449.27;1831055;78;21151;-74
2020/12/25 05:59:46;;;;;;;27.37;16.82;;;;;;;4.83;88.15;99447.42;1819084;77;21371;-74
2020/12/25 06:02:16;;;;;;;26.73;16.40;;;;;;;4.83;88.16;99446.09;1792684;78;21128;-73
2020/12/25 06:04:43;;;;;;;27.45;17.73;;;;;;;4.82;88.18;99453.77;1821675;78;21172;-73
2020/12/25 06:07:13;;;;;;;24.30;15.45;;;;;;;4.84;88.21;99464.91;1789419;78;21072;-73
2020/12/25 06:09:43;;;;;;;29.00;16.85;;;;;;;4.86;88.19;99465.45;1767659;78;21196;-73
2020/12/25 06:12:14;;;;;;;27.67;16.90;;;;;;;4.86;88.18;99465.45;1793260;79;22196;-73
2020/12/25 06:14:42;;;;;;;25.12;15.30;;;;;;;4.84;88.21;99467.56;1841118;77;21135;-73
2020/12/25 06:17:18;;;;;;;26.82;15.80;;;;;;;4.84;88.23;99475.50;1838335;77;22088;-74
2020/12/25 06:20:02;;;;;;;25.15;16.02;;;;;;;4.85;88.22;99474.44;1817823;78;21195;-74
2020/12/25 06:22:38;;;;;;;24.95;15.43;;;;;;;4.86;88.21;99479.20;1818982;78;21170;-73
2020/12/25 06:25:12;;;;;;;26.20;16.32;;;;;;;4.86;88.23;99480.53;1811298;78;22373;-74
2020/12/25 06:27:50;;;;;;;25.48;15.93;;;;;;;4.87;88.26;99484.27;1816545;78;21132;-74
2020/12/25 06:30:25;;;;;;;26.93;16.32;;;;;;;4.89;88.23;99481.36;1796151;77;21141;-74
2020/12/25 06:32:57;;;;;;;26.52;16.77;;;;;;;4.91;88.29;99471.34;1816130;78;21148;-74
2020/12/25 06:35:32;;;;;;;24.23;15.30;;;;;;;4.95;88.24;99468.47;1826797;77;21217;-73
2020/12/25 06:38:02;;;;;;;27.48;17.17;;;;;;;4.99;88.22;99470.10;1807967;78;21155;-72
2020/12/25 06:40:29;;;;;;;22.22;14.73;;;;;;;5.04;88.21;99476.80;1776878;78;21203;-74
2020/12/25 06:42:57;;;;;;;27.62;17.25;;;;;;;5.08;88.19;99483.19;1724663;78;21519;-73
2020/12/25 06:45:30;;;;;;;25.45;16.05;;;;;;;5.10;88.14;99485.05;1813662;78;21205;-73
2020/12/25 06:48:21;;;;;;;23.92;15.20;;;;;;;5.14;88.10;99494.11;1813175;77;21634;-73
2020/12/25 06:51:01;;;;;;;28.67;17.00;;;;;;;5.15;87.99;99507.09;1811359;77;21367;-73
2020/12/25 06:53:41;;;;;;;25.68;15.83;;;;;;;5.10;87.89;99503.58;1838439;77;21113;-73
2020/12/25 06:56:17;;;;;;;26.37;16.40;;;;;;;5.13;87.90;99503.08;1842496;77;21243;-74
2020/12/25 06:58:55;;;;;;;23.22;14.85;;;;;;;5.11;87.86;99502.55;1845586;77;21556;-73
2020/12/25 07:01:39;;;;;;;23.50;14.93;;;;;;;5.13;87.84;99500.44;1815593;77;21110;-73
2020/12/25 07:04:22;;;;;;;23.73;15.48;;;;;;;5.11;87.79;99499.90;1812976;77;22321;-73
2020/12/25 07:06:54;;;;;;;20.92;13.78;;;;;;;5.11;87.80;99503.88;1786574;78;21124;-74
2020/12/25 07:09:22;;;;;;;24.92;15.58;;;;;;;5.13;87.80;99513.67;1815794;78;21053;-73
2020/12/25 07:11:51;;;;;;;21.90;14.95;;;;;;;5.14;87.79;99510.00;1814699;77;21105;-73
2020/12/25 07:14:19;;;;;;;22.25;14.33;;;;;;;5.14;87.77;99510.00;1817883;77;21910;-73
2020/12/25 07:16:47;;;;;;;23.57;15.55;;;;;;;5.15;87.76;99524.83;1820332;78;21372;-73
2020/12/25 07:19:15;;;;;;;19.80;11.95;;;;;;;5.16;87.76;99515.83;1770430;78;21148;-73
2020/12/25 07:21:42;;;;;;;22.10;14.38;;;;;;;5.21;87.79;99521.20;1811908;77;21593;-73
2020/12/25 07:24:10;;;;;;;21.60;14.43;;;;;;;5.25;87.74;99522.82;1810170;77;21112;-74
2020/12/25 07:26:37;;;;;;;23.27;14.25;;;;;;;5.28;87.73;99523.13;1824159;78;21139;-76
2020/12/25 07:29:14;;;;;;;23.77;15.25;;;;;;;5.34;87.69;99526.64;1812942;78;21775;-76
2020/12/25 07:31:48;;;;;;;22.13;14.33;;;;;;;5.39;87.66;99526.16;1811296;77;22085;-73
2020/12/25 07:34:18;;;;;;;24.52;15.78;;;;;;;5.46;87.58;99539.73;1815893;77;21191;-74
2020/12/25 07:36:51;;;;;;;23.92;15.10;;;;;;;5.50;87.44;99528.94;1820559;78;21168;-73
2020/12/25 07:39:24;;;;;;;20.10;13.48;;;;;;;5.48;87.32;99526.52;1819988;78;21128;-73
2020/12/25 07:41:51;;;;;;;22.45;14.03;;;;;;;5.48;87.22;99531.82;1817759;78;21374;-73
2020/12/25 07:44:20;;;;;;;22.20;15.20;;;;;;;5.46;87.13;99542.38;1818828;77;21164;-74
2020/12/25 07:46:48;;;;;;;21.00;14.20;;;;;;;5.44;87.04;99544.49;1825538;78;21112;-73
2020/12/25 07:49:18;;;;;;;19.60;13.70;;;;;;;5.45;87.04;99554.03;1840525;77;21647;-74
2020/12/25 07:51:49;;;;;;;20.55;14.33;;;;;;;5.46;87.00;99558.27;1814145;77;21196;-75
2020/12/25 07:54:17;;;;;;;20.80;13.98;;;;;;;5.44;86.89;99569.13;1817129;78;22679;-73
2020/12/25 07:56:45;;;;;;;22.62;14.95;;;;;;;5.39;86.89;99564.55;1820681;78;21159;-73
2020/12/25 07:59:13;;;;;;;23.35;15.28;;;;;;;5.38;86.86;99568.25;1818384;78;21000;-73
2020/12/25 08:01:41;;;;;;;23.27;15.23;;;;;;;5.38;86.86;99586.80;1807113;78;21458;-73
2020/12/25 08:04:09;;;;;;;21.95;13.53;;;;;;;5.38;86.83;99585.47;1816109;78;21521;-73
2020/12/25 08:06:36;;;;;;;22.77;14.18;;;;;;;5.37;86.86;99587.84;1818143;78;21233;-74
2020/12/25 08:09:07;;;;;;;22.05;14.60;;;;;;;5.37;86.80;99587.05;1795849;78;21595;-74
2020/12/25 08:11:37;;;;;;;19.35;12.70;;;;;;;5.37;86.86;99583.88;1816896;78;21189;-73
2020/12/25 08:14:11;;;;;;;23.15;14.10;;;;;;;5.40;86.83;99587.36;1815651;78;21214;-76
2020/12/25 08:16:41;;;;;;;20.02;13.32;;;;;;;5.39;86.77;99585.73;1829661;78;21615;-74
2020/12/25 08:19:09;;;;;;;23.12;15.55;;;;;;;5.38;86.75;99583.34;1779078;78;23512;-74
2020/12/25 08:21:40;;;;;;;21.30;14.23;;;;;;;5.37;86.77;99583.08;1824895;78;21190;-72
2020/12/25 08:24:10;;;;;;;21.02;14.28;;;;;;;5.38;86.73;99580.17;1814637;78;21211;-73
2020/12/25 08:26:40;;;;;;;22.82;15.13;;;;;;;5.39;86.73;99583.09;1846143;77;21627;-74
2020/12/25 08:29:08;;;;;;;22.35;15.05;;;;;;;5.43;86.67;99583.92;1810505;78;21226;-74
2020/12/25 08:31:40;;;;;;;20.45;14.55;;;;;;;5.44;86.64;99587.66;1820239;78;21207;-73
2020/12/25 08:34:14;;;;;;;20.62;13.80;;;;;;;5.45;86.59;99593.23;1807015;78;21309;-73
2020/12/25 08:36:43;;;;;;;22.15;15.28;;;;;;;5.48;86.53;99599.36;1819186;78;21164;-74
2020/12/25 08:39:11;;;;;;;19.62;12.75;;;;;;;5.50;86.45;99599.13;1794426;77;21179;-74
2020/12/25 08:41:39;;;;;;;20.40;13.90;;;;;;;5.51;86.41;99602.84;1827509;78;21212;-75
2020/12/25 08:44:12;;;;;;;21.10;14.70;;;;;;;5.52;86.36;99600.46;1817061;78;21787;-75
2020/12/25 08:46:42;;;;;;;19.23;14.05;;;;;;;5.54;86.31;99602.88;1829020;78;21123;-75
2020/12/25 08:49:12;;;;;;;19.27;13.98;;;;;;;5.54;86.11;99593.61;1813959;78;21499;-75
2020/12/25 08:51:40;;;;;;;20.10;13.60;;;;;;;5.51;86.09;99597.54;1805194;78;21056;-74
2020/12/25 08:54:09;;;;;;;19.95;14.13;;;;;;;5.50;86.11;99591.19;1813380;78;21124;-74
2020/12/25 08:56:38;;;;;;;19.85;13.03;;;;;;;5.53;86.08;99591.48;1821754;78;22367;-74
2020/12/25 08:59:07;;;;;;;20.60;14.07;;;;;;;5.53;85.97;99593.34;1817413;78;21635;-74
2020/12/25 09:01:38;;;;;;;19.12;12.37;;;;;;;5.53;85.96;99595.98;1806896;78;21168;-74
2020/12/25 09:04:18;;;;;;;18.50;13.03;;;;;;;5.57;86.01;99594.44;1819720;78;21646;-74
2020/12/25 09:06:50;;;;;;;;;;;;;;;5.63;86.02;99596.10;1825036;78;21112;-73
2020/12/25 09:09:21;;;;;;;21.85;13.88;;;;;;;5.72;85.99;99593.80;1816985;78;20217;-74
2020/12/25 09:11:55;;;;;;;19.25;13.10;;;;;;;5.79;85.72;99599.20;1807704;78;21195;-75
2020/12/25 09:14:24;;;;;;;21.60;15.13;;;;;;;5.83;85.58;99596.84;1819822;76;21207;-73
2020/12/25 09:16:53;;;;;;;20.95;15.25;;;;;;;5.82;85.39;99598.70;1824260;78;21051;-75
2020/12/25 09:19:21;;;;;;;16.48;12.20;;;;;;;5.85;85.33;99602.16;1822230;78;21542;-72
2020/12/25 09:21:49;;;;;;;18.77;12.75;;;;;;;5.86;85.14;99598.47;1815629;77;21765;-74
2020/12/25 09:24:21;;;;;;;15.93;11.08;;;;;;;5.90;85.01;99604.61;1809747;77;21157;-74
2020/12/25 09:26:50;;;;;;;16.97;10.60;;;;;;;5.92;84.73;99597.98;1813163;77;21092;-74
2020/12/25 09:29:18;;;;;;;14.55;9.55;;;;;;;5.92;84.41;99603.81;1842114;75;21636;-73
2020/12/25 09:31:46;;;;;;;14.93;10.10;;;;;;;5.92;84.21;99606.46;1816969;77;21202;-72
2020/12/25 09:34:16;;;;;;;13.32;9.35;;;;;;;5.91;84.05;99604.34;1817375;77;21499;-73
2020/12/25 09:36:44;;;;;;;14.23;9.50;;;;;;;5.93;84.02;99605.46;1810071;78;21592;-73
2020/12/25 09:39:12;;;;;;;13.38;9.55;;;;;;;5.95;84.01;99601.49;1825134;78;21115;-73
2020/12/25 09:41:40;;;;;;;14.07;9.15;;;;;;;5.96;83.79;99600.99;1832146;78;21032;-77
2020/12/25 09:44:08;;;;;;;13.98;9.18;;;;;;;5.93;83.68;99610.77;1829813;78;21198;-73
2020/12/25 09:46:41;;;;;;;12.33;9.25;;;;;;;5.89;83.61;99609.11;1815736;77;21249;-73
2020/12/25 09:49:09;;;;;;;11.35;8.20;;;;;;;5.88;83.64;99606.95;1804561;78;21159;-75
2020/12/25 09:51:38;;;;;;;14.10;9.90;;;;;;;5.90;83.56;99604.08;1807131;78;21150;-74
2020/12/25 09:54:07;;;;;;;14.58;9.33;;;;;;;5.93;83.59;99597.52;1808350;78;21151;-74
2020/12/25 09:56:35;;;;;;;18.77;12.88;;;;;;;5.99;83.47;99599.14;1810044;77;21144;-73
2020/12/25 09:59:03;;;;;;;15.88;11.28;;;;;;;6.00;83.36;99592.28;1815490;77;21565;-73
2020/12/25 10:01:32;;;;;;;15.48;11.35;;;;;;;6.04;83.33;99587.27;1820836;77;21152;-72
2020/12/25 10:04:02;;;;;;;14.10;9.53;;;;;;;6.10;83.35;99584.95;1808679;77;21133;-74
2020/12/25 10:06:31;;;;;;;14.73;9.80;;;;;;;6.18;83.29;99592.44;1806896;77;21533;-74
2020/12/25 10:08:59;;;;;;;14.13;10.18;;;;;;;6.20;83.17;99595.64;1837707;77;21651;-73
2020/12/25 10:11:26;;;;;;;14.43;9.70;;;;;;;6.20;83.07;99585.04;1843922;77;21645;-72
2020/12/25 10:13:54;;;;;;;13.40;9.63;;;;;;;6.23;82.99;99587.19;1805799;77;21213;-73
2020/12/25 10:16:22;;;;;;;15.05;11.15;;;;;;;6.24;82.81;99580.83;1821335;77;21382;-74
2020/12/25 10:18:50;;;;;;;14.60;10.20;;;;;;;6.23;82.71;99581.89;1818313;77;21187;-76
2020/12/25 10:21:18;;;;;;;13.93;9.95;;;;;;;6.24;82.64;99582.16;1822910;77;21201;-75
2020/12/25 10:23:46;;;;;;;14.18;9.33;;;;;;;6.24;82.63;99582.16;1812520;78;21802;-75
2020/12/25 10:26:13;;;;;;;14.58;10.48;;;;;;;6.24;82.54;99584.80;1816004;78;21171;-75
2020/12/25 10:28:41;;;;;;;14.35;10.58;;;;;;;6.26;82.55;99578.73;1815564;78;21173;-75
2020/12/25 10:31:09;;;;;;;13.48;9.68;;;;;;;6.34;82.60;99570.83;1812452;77;21621;-74
2020/12/25 10:33:38;;;;;;;14.03;10.10;;;;;;;6.45;82.58;99565.08;1824528;78;21175;-74
2020/12/25 10:36:07;;;;;;;16.00;9.80;;;;;;;6.56;82.52;99568.89;1812188;76;21360;-74
2020/12/25 10:38:36;;;;;;;13.78;9.43;;;;;;;6.66;82.36;99568.69;1805218;77;21209;-74
2020/12/25 10:41:07;;;;;;;13.25;9.38;;;;;;;6.74;82.16;99571.65;1819885;77;21135;-74
2020/12/25 10:43:35;;;;;;;12.05;8.95;;;;;;;6.79;81.95;99577.00;1821236;78;21163;-74
2020/12/25 10:46:03;;;;;;;11.68;8.35;;;;;;;6.82;81.82;99571.72;1817452;76;21127;-74
2020/12/25 10:48:32;;;;;;;13.75;9.15;;;;;;;6.89;81.52;99575.48;1809769;77;21362;-74
2020/12/25 10:51:03;;;;;;;13.20;10.10;;;;;;;6.93;81.21;99572.04;1802221;78;21200;-73
2020/12/25 10:53:34;;;;;;;13.18;9.20;;;;;;;6.98;80.95;99569.96;1839120;75;21219;-73
2020/12/25 10:56:01;;;;;;;11.85;8.40;;;;;;;7.01;80.65;99564.14;1826767;76;21177;-73
2020/12/25 10:58:29;;;;;;;11.55;8.20;;;;;;;7.02;79.96;99577.67;1824302;77;21575;-75
2020/12/25 11:00:57;;;;;;;11.00;7.75;;;;;;;6.96;79.58;99587.98;1839266;77;21257;-74
2020/12/25 11:03:26;;;;;;;12.43;8.70;;;;;;;6.95;79.44;99587.73;1832253;77;21177;-72
2020/12/25 11:05:54;;;;;;;13.62;8.93;;;;;;;6.94;79.48;99593.57;1813265;77;21142;-74
2020/12/25 11:08:23;;;;;;;16.02;10.50;;;;;;;6.96;79.65;99598.61;1812481;77;21141;-74
2020/12/25 11:10:50;;;;;;;14.43;9.63;;;;;;;7.00;79.28;99597.03;1797446;77;21232;-74
2020/12/25 11:13:18;;;;;;;13.68;9.38;;;;;;;6.95;79.02;99605.78;1815274;78;21209;-73
2020/12/25 11:15:49;;;;;;;13.35;9.35;;;;;;;6.90;78.89;99604.41;1847020;75;21569;-75
2020/12/25 11:18:18;;;;;;;12.18;8.10;;;;;;;6.80;78.87;99614.42;1833587;75;21155;-75
2020/12/25 11:20:46;;;;;;;10.93;8.05;;;;;;;6.76;78.46;99628.47;1821499;77;21164;-75
2020/12/25 11:23:14;;;;;;;11.33;8.13;;;;;;;6.67;78.60;99626.80;1840128;77;21174;-75
2020/12/25 11:25:41;;;;;;;13.83;9.28;;;;;;;6.61;78.60;99619.05;1791112;78;21361;-74
2020/12/25 11:28:09;;;;;;;13.60;9.90;;;;;;;6.57;78.77;99625.40;1831519;76;21195;-73
2020/12/25 11:30:37;;;;;;;11.70;8.60;;;;;;;6.54;78.93;99620.59;1835374;77;21134;-73
2020/12/25 11:33:04;;;;;;;12.53;8.85;;;;;;;6.56;79.10;99614.52;1836117;77;21158;-74
2020/12/25 11:35:32;;;;;;;12.95;8.65;;;;;;;6.57;79.10;99600.98;1832440;77;21166;-74
2020/12/25 11:38:00;;;;;;;10.65;8.03;;;;;;;6.57;79.18;99605.50;1798575;79;21373;-73
2020/12/25 11:40:27;;;;;;;11.00;8.30;;;;;;;6.55;79.17;99609.75;1810562;78;21174;-72